Главная страница
METAR-TAF:

METAR-TAF

Аэропорты :

Атырау, Казахстан

широта: 47-07-19N, долгота: 051-49-17E, высота над уровнем моря: -22 м

Текущие метеонаблюдения

Эта сводка был подготовлена 17 минут назад, в 01:30 UTC
Ветер 6 Узел от северный
Температура 19°C
Влажность 56%
Давление 1014 hPa
Видимость 10 км и более
Нет облачности ниже 1500 м, и нет кучево-дождевой облачности

METAR: UATG 150130Z 36003MPS CAVOK 19/10 Q1014 R32/CLRD70 NOSIG RMK QFE762/1016

Время: 07:47 (01:47 UTC)

Прогноз

Эта сводка был подготовлена 2 часа и 44 минут назад, в 23:03 UTC
Прогноз действительный с 15-го 00 UTC до 15-го 24 UTC
Ветер 10 Узел от северо-западный
Видимость 10 км и более
Отдельные облака на высоте 3300 фута, Кучево-дождевые.
изменения
С 15-го 03 UTC до 15-го 05 UTC
Ветер 17 Узел от северный

TAF: UATG 142303Z 1500/1524 31005MPS 9999 SCT033CB TX32/1512Z TN18/1501Z BECMG 1503/1505 01009MPS

Метеонаблюдения и прогнозы для более 4000 аэропортов (сводки METAR и TAF).

Имеющиеся станции представлены на карте желтыми и красными точками.

Чтобы увидеть название станции, наведите на нее мышь.

Затем щелкните, чтобы увидеть метеонаблюдения и метеопрогнозы.

Управление картой: чтобы увеличить масштаб, щелкните зеленые кнопки с черным крестиком; чтобы уменьшить масштаб, щелкните зеленую кнопку с тире; для просмотра соседних карт щелкайте зеленые стрелки.


METAR-TAF: